createdAt,value
2018-04-01T00:01:57.616Z,29.50
2018-04-01T00:04:24.623Z,30.10
2018-04-01T00:06:51.628Z,31.70
2018-04-01T00:09:18.582Z,31.03
2018-04-01T00:11:45.600Z,33.40
2018-04-01T00:14:12.568Z,33.87
2018-04-01T00:16:39.520Z,33.00
2018-04-01T00:19:06.463Z,29.60
2018-04-01T00:21:34.114Z,30.60
2018-04-01T00:24:01.106Z,30.53
2018-04-01T00:26:28.126Z,28.93
2018-04-01T00:28:55.077Z,28.00
2018-04-01T00:31:22.082Z,27.40
2018-04-01T00:33:49.040Z,28.30
2018-04-01T00:36:16.002Z,27.43
2018-04-01T00:38:43.430Z,28.10
2018-04-01T00:41:10.390Z,30.07
2018-04-01T00:43:37.347Z,29.03
2018-04-01T00:46:04.322Z,30.60
2018-04-01T00:48:31.340Z,34.07
2018-04-01T00:50:58.373Z,31.30
2018-04-01T00:53:25.338Z,32.97
2018-04-01T00:55:52.332Z,32.10
2018-04-01T00:58:19.312Z,33.93
2018-04-01T01:00:46.272Z,32.90
2018-04-01T01:03:13.272Z,33.40
2018-04-01T01:05:40.344Z,32.27
2018-04-01T01:08:07.391Z,31.53
2018-04-01T01:10:34.359Z,32.40
2018-04-01T01:13:01.364Z,34.93
2018-04-01T01:15:28.335Z,37.83
2018-04-01T01:17:55.316Z,38.07
2018-04-01T01:20:22.364Z,39.33
2018-04-01T01:22:49.308Z,40.13
2018-04-01T01:25:16.250Z,39.63
2018-04-01T01:27:43.190Z,40.23
2018-04-01T01:30:10.146Z,37.50
2018-04-01T01:32:37.161Z,37.77
2018-04-01T01:35:04.124Z,38.50
2018-04-01T01:37:31.124Z,38.40
2018-04-01T01:39:58.134Z,40.80
2018-04-01T01:42:25.071Z,39.07
2018-04-01T01:44:53.161Z,40.27
2018-04-01T01:47:20.185Z,40.83
2018-04-01T01:49:47.244Z,37.87
2018-04-01T01:52:14.235Z,36.90
2018-04-01T01:54:41.205Z,36.60
2018-04-01T01:57:08.196Z,36.73
2018-04-01T01:59:35.157Z,33.13
2018-04-01T02:02:02.163Z,33.53
2018-04-01T02:04:29.194Z,33.27
2018-04-01T02:06:56.158Z,29.33
2018-04-01T02:09:23.104Z,31.57
2018-04-01T02:11:50.134Z,29.50
2018-04-01T02:14:17.124Z,28.83
2018-04-01T02:16:44.083Z,28.53
2018-04-01T02:19:11.111Z,29.30
2018-04-01T02:21:38.094Z,26.53
2018-04-01T02:24:05.068Z,26.73
2018-04-01T02:26:32.345Z,25.53
2018-04-01T02:28:59.366Z,24.50
2018-04-01T02:31:26.436Z,24.37
2018-04-01T02:33:53.435Z,23.00
2018-04-01T02:36:20.486Z,24.23
2018-04-01T02:38:47.508Z,23.30
2018-04-01T02:41:14.572Z,22.37
2018-04-01T02:43:41.590Z,21.97
2018-04-01T02:46:08.600Z,23.33
2018-04-01T02:48:35.591Z,22.63
2018-04-01T02:51:02.566Z,21.97
2018-04-01T02:53:29.558Z,22.37
2018-04-01T02:55:56.553Z,22.13
2018-04-01T02:58:25.593Z,21.07
2018-04-01T03:00:52.648Z,20.63
2018-04-01T03:03:19.712Z,21.40
2018-04-01T03:05:46.669Z,21.00
2018-04-01T03:08:13.671Z,22.07
2018-04-01T03:10:40.662Z,21.03
2018-04-01T03:13:07.635Z,20.73
2018-04-01T03:15:34.622Z,20.23
2018-04-01T03:18:01.710Z,21.23
2018-04-01T03:20:28.777Z,20.40
2018-04-01T03:22:55.756Z,21.07
2018-04-01T03:25:22.724Z,20.33
2018-04-01T03:27:49.775Z,21.17
2018-04-01T03:30:16.826Z,19.80
2018-04-01T03:32:43.809Z,20.20
2018-04-01T03:35:10.835Z,21.07
2018-04-01T03:37:37.853Z,22.60
2018-04-01T03:40:04.853Z,21.13
2018-04-01T03:42:31.962Z,22.73
2018-04-01T03:44:58.918Z,21.00
2018-04-01T03:47:25.927Z,21.80
2018-04-01T03:49:52.987Z,22.37
2018-04-01T03:52:20.678Z,23.03
2018-04-01T03:54:47.634Z,21.10
2018-04-01T03:57:14.595Z,21.80
2018-04-01T03:59:41.613Z,20.37
2018-04-01T04:02:08.591Z,21.27
2018-04-01T04:04:35.621Z,21.77
2018-04-01T04:07:02.648Z,22.37
2018-04-01T04:09:29.673Z,18.50
2018-04-01T04:11:56.642Z,22.03
2018-04-01T04:14:23.666Z,21.27
2018-04-01T04:16:50.760Z,21.13
2018-04-01T04:19:17.790Z,22.00
2018-04-01T04:21:44.826Z,22.83
2018-04-01T04:24:11.789Z,21.03
2018-04-01T04:26:38.770Z,22.13
2018-04-01T04:29:05.770Z,21.97
2018-04-01T04:31:32.739Z,22.93
2018-04-01T04:33:59.768Z,21.10
2018-04-01T04:36:26.912Z,21.63
2018-04-01T04:38:53.978Z,21.60
2018-04-01T04:41:21.018Z,22.07
2018-04-01T04:43:48.098Z,22.17
2018-04-01T04:46:15.122Z,23.13
2018-04-01T04:48:42.244Z,23.27
2018-04-01T04:51:09.316Z,21.70
2018-04-01T04:53:36.421Z,24.37
2018-04-01T04:56:03.406Z,23.37
2018-04-01T04:58:30.600Z,23.37
2018-04-01T05:00:57.621Z,22.87
2018-04-01T05:03:24.586Z,23.07
2018-04-01T05:05:51.621Z,23.53
2018-04-01T05:08:18.639Z,24.20
2018-04-01T05:10:45.879Z,23.43
2018-04-01T05:13:12.858Z,25.27
2018-04-01T05:15:39.821Z,23.83
2018-04-01T05:18:06.832Z,22.60
2018-04-01T05:20:33.903Z,22.87
2018-04-01T05:23:01.534Z,24.70
2018-04-01T05:25:28.504Z,23.70
2018-04-01T05:27:55.543Z,23.77
2018-04-01T05:30:22.574Z,23.00
2018-04-01T05:32:49.590Z,22.70
2018-04-01T05:35:16.569Z,22.67
2018-04-01T05:37:43.892Z,22.93
2018-04-01T05:40:11.209Z,22.03
2018-04-01T05:42:40.014Z,21.87
2018-04-01T05:45:07.007Z,22.70
2018-04-01T05:47:34.325Z,21.73
2018-04-01T05:50:01.426Z,21.73
2018-04-01T05:52:28.433Z,22.63
2018-04-01T05:54:55.530Z,21.30
2018-04-01T05:57:22.529Z,21.50
2018-04-01T05:59:51.860Z,20.87
2018-04-01T06:02:18.911Z,21.20
2018-04-01T06:04:45.975Z,20.80
2018-04-01T06:07:14.087Z,22.00
2018-04-01T06:09:41.107Z,21.67
2018-04-01T06:12:08.146Z,20.30
2018-04-01T06:14:35.169Z,21.40
2018-04-01T06:17:02.138Z,20.27
2018-04-01T06:19:29.279Z,19.97
2018-04-01T06:21:56.318Z,20.17
2018-04-01T06:24:23.925Z,19.57
2018-04-01T06:26:50.952Z,20.83
2018-04-01T06:29:18.846Z,19.60
2018-04-01T06:31:46.735Z,20.40
2018-04-01T06:34:13.683Z,17.97
2018-04-01T06:36:41.638Z,18.47
2018-04-01T06:39:08.641Z,18.53
2018-04-01T06:41:36.610Z,19.33
2018-04-01T06:44:05.123Z,18.20
2018-04-01T06:46:32.119Z,19.13
2018-04-01T06:48:59.102Z,17.43
2018-04-01T06:51:26.078Z,17.40
2018-04-01T06:53:53.080Z,18.43
2018-04-01T06:56:20.151Z,18.73
2018-04-01T06:58:50.409Z,17.40
2018-04-01T07:01:17.387Z,18.43
2018-04-01T07:03:44.485Z,17.47
2018-04-01T07:06:11.515Z,19.27
2018-04-01T07:08:41.457Z,19.13
2018-04-01T07:11:08.504Z,17.67
2018-04-01T07:13:35.679Z,18.93
2018-04-01T07:16:02.658Z,18.17
2018-04-01T07:18:29.764Z,18.20
2018-04-01T07:20:56.879Z,18.80
2018-04-01T07:23:25.139Z,18.07
2018-04-01T07:25:53.366Z,18.43
2018-04-01T07:28:20.388Z,19.33
2018-04-01T07:30:47.437Z,18.43
2018-04-01T07:33:14.509Z,18.30
2018-04-01T07:35:41.444Z,18.37
2018-04-01T07:38:08.558Z,17.40
2018-04-01T07:40:41.902Z,16.73
2018-04-01T07:43:08.912Z,17.47
2018-04-01T07:45:35.914Z,16.93
2018-04-01T07:48:02.896Z,16.87
2018-04-01T07:50:30.754Z,18.97
2018-04-01T07:52:59.380Z,17.30
2018-04-01T07:55:26.830Z,17.33
2018-04-01T07:57:53.865Z,17.43
2018-04-01T08:00:20.842Z,16.40
2018-04-01T08:02:50.427Z,17.40
2018-04-01T08:05:17.525Z,16.20
2018-04-01T08:07:46.067Z,15.40
2018-04-01T08:10:20.861Z,17.27
2018-04-01T08:12:51.929Z,14.40
2018-04-01T08:15:18.976Z,15.60
2018-04-01T08:17:46.650Z,14.57
2018-04-01T08:20:13.680Z,15.07
2018-04-01T08:22:40.648Z,15.67
2018-04-01T08:25:07.698Z,15.33
2018-04-01T08:27:34.730Z,14.93
2018-04-01T08:30:01.757Z,14.67
2018-04-01T08:32:28.720Z,14.03
2018-04-01T08:34:55.760Z,15.00
2018-04-01T08:37:23.002Z,15.17
2018-04-01T08:39:50.093Z,14.03
2018-04-01T08:42:17.145Z,13.83
2018-04-01T08:44:44.175Z,14.67
2018-04-01T08:47:11.368Z,13.90
2018-04-01T08:49:38.342Z,13.23
2018-04-01T08:52:05.355Z,13.50
2018-04-01T08:54:32.417Z,13.47
2018-04-01T08:56:59.440Z,13.07
2018-04-01T08:59:26.529Z,14.07
2018-04-01T09:01:53.479Z,13.10
2018-04-01T09:04:20.422Z,14.43
2018-04-01T09:06:47.425Z,12.27
2018-04-01T09:09:14.394Z,13.70
2018-04-01T09:11:41.385Z,13.00
2018-04-01T09:14:08.498Z,12.97
2018-04-01T09:16:35.476Z,12.60
2018-04-01T09:19:02.623Z,12.97
2018-04-01T09:21:29.700Z,12.73
2018-04-01T09:23:56.861Z,13.40
2018-04-01T09:26:23.934Z,11.30
2018-04-01T09:28:51.007Z,12.33
2018-04-01T09:31:18.024Z,13.53
2018-04-01T09:33:45.042Z,12.67
2018-04-01T09:36:12.198Z,12.43
2018-04-01T09:38:39.214Z,11.37
2018-04-01T09:41:06.289Z,12.60
2018-04-01T09:43:33.248Z,12.20
2018-04-01T09:46:00.340Z,12.37
2018-04-01T09:48:27.383Z,11.50
2018-04-01T09:50:54.470Z,11.73
2018-04-01T09:53:21.478Z,12.40
2018-04-01T09:55:48.516Z,12.87
2018-04-01T09:58:15.544Z,12.53
2018-04-01T10:01:00.866Z,11.87
2018-04-01T10:03:28.404Z,10.60
2018-04-01T10:05:55.914Z,12.23
2018-04-01T10:08:23.456Z,12.03
2018-04-01T10:10:51.030Z,11.33
2018-04-01T10:13:18.656Z,12.37
2018-04-01T10:15:46.175Z,12.77
2018-04-01T10:18:13.698Z,12.90
2018-04-01T10:20:41.226Z,13.37
2018-04-01T10:23:08.754Z,12.07
2018-04-01T10:25:36.274Z,12.47
2018-04-01T10:28:03.815Z,12.30
2018-04-01T10:30:31.426Z,12.47
2018-04-01T10:32:59.102Z,12.50
2018-04-01T10:35:26.736Z,11.97
2018-04-01T10:37:54.296Z,11.10
2018-04-01T10:40:21.856Z,12.73
2018-04-01T10:42:49.367Z,13.70
2018-04-01T10:45:16.885Z,12.23
2018-04-01T10:47:44.501Z,13.83
2018-04-01T10:50:12.065Z,13.43
2018-04-01T10:52:39.973Z,13.87
2018-04-01T10:55:07.060Z,13.53
2018-04-01T10:57:34.201Z,13.23
2018-04-01T11:00:01.196Z,14.13
2018-04-01T11:02:28.173Z,13.40
2018-04-01T11:04:55.212Z,13.00
2018-04-01T11:07:22.278Z,13.27
2018-04-01T11:09:50.218Z,12.97
2018-04-01T11:12:17.229Z,12.87
2018-04-01T11:14:44.205Z,13.30
2018-04-01T11:17:11.149Z,13.03
2018-04-01T11:19:38.201Z,12.73
2018-04-01T11:22:05.258Z,13.13
2018-04-01T11:24:32.321Z,13.67
2018-04-01T11:26:59.358Z,14.53
2018-04-01T11:29:26.386Z,13.67
2018-04-01T11:31:53.361Z,12.10
2018-04-01T11:34:20.452Z,12.67
2018-04-01T11:36:47.434Z,13.50
2018-04-01T11:39:14.558Z,12.53
2018-04-01T11:41:41.522Z,12.73
2018-04-01T11:44:08.517Z,10.50
2018-04-01T11:46:35.526Z,11.63
2018-04-01T11:49:02.557Z,11.03
2018-04-01T11:51:29.516Z,12.70
2018-04-01T11:53:56.537Z,12.80
2018-04-01T11:56:23.536Z,13.40
2018-04-01T11:58:50.538Z,12.53
2018-04-01T12:01:17.519Z,13.17
2018-04-01T12:03:44.519Z,12.60
2018-04-01T12:06:11.499Z,12.57
2018-04-01T12:08:38.533Z,11.93
2018-04-01T12:11:05.492Z,11.23
2018-04-01T12:13:32.524Z,12.07
2018-04-01T12:15:59.517Z,11.90
2018-04-01T12:18:26.543Z,12.47
2018-04-01T12:20:53.609Z,11.93
2018-04-01T12:23:20.658Z,11.90
2018-04-01T12:25:47.654Z,12.00
2018-04-01T12:28:14.665Z,13.50
2018-04-01T12:30:41.681Z,11.77
2018-04-01T12:33:08.712Z,11.80
2018-04-01T12:35:35.736Z,12.80
2018-04-01T12:38:02.711Z,11.67
2018-04-01T12:40:29.698Z,11.67
2018-04-01T12:42:56.707Z,11.20
2018-04-01T12:45:23.727Z,11.97
2018-04-01T12:47:50.698Z,11.40
2018-04-01T12:50:17.697Z,11.97
2018-04-01T12:52:44.668Z,11.00
2018-04-01T12:55:11.613Z,11.00
2018-04-01T12:57:38.588Z,11.07
2018-04-01T13:00:05.597Z,11.20
2018-04-01T13:02:32.578Z,10.67
2018-04-01T13:04:59.592Z,10.07
2018-04-01T13:07:26.636Z,11.27
2018-04-01T13:09:53.606Z,10.93
2018-04-01T13:12:20.555Z,12.03
2018-04-01T13:14:47.508Z,11.80
2018-04-01T13:17:14.467Z,9.60
2018-04-01T13:19:41.481Z,11.07
2018-04-01T13:22:08.494Z,11.20
2018-04-01T13:24:35.492Z,11.60
2018-04-01T13:27:03.342Z,10.57
2018-04-01T13:29:30.373Z,10.30
2018-04-01T13:31:57.374Z,11.23
2018-04-01T13:34:24.375Z,11.50
2018-04-01T13:36:51.350Z,11.73
2018-04-01T13:39:18.324Z,11.73
2018-04-01T13:41:52.121Z,11.10
2018-04-01T13:44:19.841Z,11.97
2018-04-01T13:46:46.814Z,10.40
2018-04-01T13:49:13.816Z,10.33
2018-04-01T13:51:41.106Z,10.20
2018-04-01T13:54:08.186Z,9.77
2018-04-01T13:56:35.405Z,11.23
2018-04-01T13:59:02.399Z,10.23
2018-04-01T14:01:29.397Z,10.63
2018-04-01T14:03:56.352Z,9.90
2018-04-01T14:06:23.326Z,11.20
2018-04-01T14:08:50.311Z,11.13
2018-04-01T14:11:17.305Z,10.50
2018-04-01T14:13:44.328Z,10.90
2018-04-01T14:16:11.371Z,10.00
2018-04-01T14:18:38.359Z,11.37
2018-04-01T14:21:05.327Z,10.27
2018-04-01T14:23:32.314Z,11.23
2018-04-01T14:25:59.311Z,11.27
2018-04-01T14:28:26.311Z,11.87
2018-04-01T14:30:53.355Z,11.53
2018-04-01T14:33:20.372Z,12.53
2018-04-01T14:35:47.425Z,12.67
2018-04-01T14:38:14.392Z,13.73
2018-04-01T14:40:41.362Z,14.73
2018-04-01T14:43:08.326Z,15.67
2018-04-01T14:45:35.355Z,15.37
2018-04-01T14:48:02.339Z,15.13
2018-04-01T14:50:29.358Z,16.00
2018-04-01T14:52:56.335Z,16.37
2018-04-01T14:55:23.326Z,15.80
2018-04-01T14:57:50.294Z,15.47
2018-04-01T15:00:17.254Z,17.27
2018-04-01T15:02:44.307Z,16.20
2018-04-01T15:05:11.299Z,16.83
2018-04-01T15:07:38.288Z,17.37
2018-04-01T15:10:05.289Z,18.47
2018-04-01T15:12:32.238Z,18.60
2018-04-01T15:14:59.306Z,17.80
2018-04-01T15:17:26.278Z,18.73
2018-04-01T15:19:53.314Z,18.27
2018-04-01T15:22:20.285Z,19.30
2018-04-01T15:24:47.302Z,18.17
2018-04-01T15:27:14.321Z,17.83
2018-04-01T15:29:41.279Z,17.87
2018-04-01T15:32:08.257Z,17.57
2018-04-01T15:34:35.277Z,16.37
2018-04-01T15:37:02.278Z,16.73
2018-04-01T15:39:29.300Z,16.00
2018-04-01T15:41:56.308Z,15.10
2018-04-01T15:44:23.286Z,15.07
2018-04-01T15:46:50.312Z,13.63
2018-04-01T15:49:17.344Z,15.23
2018-04-01T15:51:44.439Z,13.17
2018-04-01T15:54:11.454Z,13.30
2018-04-01T15:56:38.429Z,13.53
2018-04-01T15:59:05.435Z,14.40
2018-04-01T16:01:32.496Z,12.70
2018-04-01T16:03:59.494Z,13.20
2018-04-01T16:06:26.507Z,13.40
2018-04-01T16:08:53.473Z,12.63
2018-04-01T16:11:20.534Z,13.47
2018-04-01T16:13:47.628Z,13.63
2018-04-01T16:16:14.574Z,12.10
2018-04-01T16:18:41.589Z,12.30
2018-04-01T16:21:08.627Z,12.67
2018-04-01T16:23:35.647Z,12.17
2018-04-01T16:26:02.632Z,12.00
2018-04-01T16:28:29.636Z,11.93
2018-04-01T16:30:56.612Z,13.40
2018-04-01T16:33:23.701Z,12.80
2018-04-01T16:35:50.753Z,11.60
2018-04-01T16:38:18.486Z,11.07
2018-04-01T16:40:45.498Z,10.77
2018-04-01T16:43:12.542Z,10.10
2018-04-01T16:45:39.548Z,10.87
2018-04-01T16:48:06.524Z,11.40
2018-04-01T16:50:33.618Z,10.30
2018-04-01T16:53:00.621Z,9.10
2018-04-01T16:55:27.649Z,9.33
2018-04-01T16:57:54.694Z,9.17
2018-04-01T17:00:21.743Z,10.63
2018-04-01T17:02:48.804Z,44.33
2018-04-01T17:05:15.793Z,87.17
2018-04-01T17:07:42.770Z,30.03
2018-04-01T17:10:09.756Z,33.83
2018-04-01T17:12:36.740Z,87.67
2018-04-01T17:15:03.706Z,228.57
2018-04-01T17:17:30.782Z,218.53
2018-04-01T17:19:57.836Z,104.17
2018-04-01T17:22:24.905Z,69.27
2018-04-01T17:24:51.873Z,77.50
2018-04-01T17:27:18.861Z,44.47
2018-04-01T17:29:45.833Z,64.90
2018-04-01T17:32:12.896Z,23.73
2018-04-01T17:34:39.889Z,181.70
2018-04-01T17:37:06.959Z,97.70
2018-04-01T17:39:33.936Z,115.03
2018-04-01T17:42:00.944Z,40.20
2018-04-01T17:44:27.930Z,67.30
2018-04-01T17:46:54.930Z,54.90
2018-04-01T17:49:21.936Z,88.67
2018-04-01T17:51:48.952Z,63.10
2018-04-01T17:54:16.005Z,137.63
2018-04-01T17:56:43.058Z,109.73
2018-04-01T17:59:10.043Z,146.33
2018-04-01T18:01:37.025Z,156.30
2018-04-01T18:04:04.006Z,410.20
2018-04-01T18:06:31.038Z,387.47
2018-04-01T18:08:58.044Z,231.37
2018-04-01T18:11:25.057Z,149.93
2018-04-01T18:13:52.107Z,112.00
2018-04-01T18:16:19.138Z,69.23
2018-04-01T18:18:47.340Z,137.40
2018-04-01T18:21:14.554Z,73.10
2018-04-01T18:23:41.543Z,79.63
2018-04-01T18:26:08.528Z,64.13
2018-04-01T18:28:35.572Z,84.53
2018-04-01T18:31:03.620Z,36.43
2018-04-01T18:33:31.376Z,75.20
2018-04-01T18:35:58.359Z,92.90
2018-04-01T18:38:25.404Z,57.23
2018-04-01T18:40:52.474Z,57.03
2018-04-01T18:43:19.498Z,65.93
2018-04-01T18:45:46.508Z,160.43
2018-04-01T18:48:13.480Z,67.07
2018-04-01T18:50:40.495Z,48.13
2018-04-01T18:53:07.446Z,50.10
2018-04-01T18:55:34.450Z,52.30
2018-04-01T18:58:01.475Z,42.77
2018-04-01T19:00:28.496Z,47.43
2018-04-01T19:02:55.455Z,35.00
2018-04-01T19:05:22.442Z,30.40
2018-04-01T19:07:49.404Z,23.53
2018-04-01T19:10:16.383Z,20.37
2018-04-01T19:12:43.413Z,18.73
2018-04-01T19:15:10.393Z,17.53
2018-04-01T19:17:37.948Z,16.03
2018-04-01T19:20:05.475Z,15.03
2018-04-01T19:22:32.987Z,17.30
2018-04-01T19:25:00.508Z,18.33
2018-04-01T19:27:28.040Z,27.23
2018-04-01T19:29:55.649Z,39.27
2018-04-01T19:32:23.237Z,44.67
2018-04-01T19:34:50.792Z,56.63
2018-04-01T19:37:18.491Z,52.00
2018-04-01T19:39:46.038Z,46.30
2018-04-01T19:42:13.661Z,47.20
2018-04-01T19:44:41.229Z,47.63
2018-04-01T19:47:08.784Z,41.33
2018-04-01T19:49:36.279Z,38.97
2018-04-01T19:52:03.847Z,33.90
2018-04-01T19:54:31.410Z,26.30
2018-04-01T19:56:58.902Z,24.50
2018-04-01T19:59:26.530Z,22.20
2018-04-01T20:01:54.058Z,20.70
2018-04-01T20:04:21.620Z,20.57
2018-04-01T20:06:49.140Z,20.17
2018-04-01T20:09:16.673Z,20.47
2018-04-01T20:11:44.172Z,18.87
2018-04-01T20:14:11.777Z,20.90
2018-04-01T20:16:39.258Z,19.33
2018-04-01T20:19:06.892Z,19.90
2018-04-01T20:21:34.478Z,18.37
2018-04-01T20:24:02.039Z,18.63
2018-04-01T20:26:29.533Z,19.30
2018-04-01T20:28:57.327Z,18.83
2018-04-01T20:31:24.867Z,18.37
2018-04-01T20:33:52.390Z,19.70
2018-04-01T20:36:19.929Z,18.07
2018-04-01T20:38:47.474Z,18.53
2018-04-01T20:41:14.974Z,18.00
2018-04-01T20:43:42.510Z,20.03
2018-04-01T20:46:10.056Z,20.80
2018-04-01T20:48:37.615Z,21.20
2018-04-01T20:51:05.181Z,21.20
2018-04-01T20:53:32.788Z,22.83
2018-04-01T20:56:00.294Z,22.00
2018-04-01T20:58:27.799Z,22.40
2018-04-01T21:00:55.378Z,21.10
2018-04-01T21:03:22.970Z,20.80
2018-04-01T21:05:51.363Z,19.20
2018-04-01T21:08:18.867Z,18.07
2018-04-01T21:10:46.420Z,19.77
2018-04-01T21:13:13.930Z,18.63
2018-04-01T21:15:41.483Z,19.23
2018-04-01T21:18:09.061Z,20.23
2018-04-01T21:20:36.603Z,19.43
2018-04-01T21:23:04.151Z,18.43
2018-04-01T21:25:31.677Z,20.30
2018-04-01T21:27:59.220Z,21.07
2018-04-01T21:30:26.812Z,20.70
2018-04-01T21:32:54.465Z,19.43
2018-04-01T21:35:22.570Z,20.40
2018-04-01T21:37:50.093Z,22.03
2018-04-01T21:40:17.671Z,22.83
2018-04-01T21:42:45.240Z,26.77
2018-04-01T21:45:12.775Z,27.00
2018-04-01T21:47:40.299Z,28.97
2018-04-01T21:50:07.871Z,28.07
2018-04-01T21:52:35.374Z,26.93
2018-04-01T21:55:02.911Z,24.47
2018-04-01T21:57:30.405Z,23.97
2018-04-01T21:59:57.949Z,20.93
2018-04-01T22:02:25.500Z,22.73
2018-04-01T22:04:53.021Z,21.73
2018-04-01T22:07:20.553Z,20.97
2018-04-01T22:09:48.108Z,21.73
2018-04-01T22:12:15.645Z,23.70
2018-04-01T22:14:43.208Z,23.67
2018-04-01T22:17:10.752Z,23.47
2018-04-01T22:19:38.302Z,24.80
2018-04-01T22:22:05.831Z,25.33
2018-04-01T22:24:33.352Z,25.50
2018-04-01T22:27:00.884Z,26.27
2018-04-01T22:29:28.434Z,25.70
2018-04-01T22:31:55.985Z,25.40
2018-04-01T22:34:23.533Z,26.97
2018-04-01T22:36:51.029Z,25.67
2018-04-01T22:39:18.623Z,24.50
2018-04-01T22:41:46.115Z,23.57
2018-04-01T22:44:13.630Z,24.50
2018-04-01T22:46:41.169Z,23.47
2018-04-01T22:49:08.678Z,22.93
2018-04-01T22:51:36.252Z,23.43
2018-04-01T22:54:03.866Z,22.67
2018-04-01T22:56:31.404Z,23.33
2018-04-01T22:58:58.954Z,24.43
2018-04-01T23:01:26.476Z,22.73
2018-04-01T23:03:54.021Z,22.20
2018-04-01T23:06:21.511Z,19.87
2018-04-01T23:08:49.013Z,19.27
2018-04-01T23:11:16.556Z,19.33
